Time;durP1;ratioP1;P1;durP2;ratioP2;P2;SDS_P1;SDS_P2;PMS_P1;PMS_P2;Temp;Humidity;BMP_temperature;BMP_pressure;BME280_temperature;BME280_humidity;BME280_pressure;Samples;Min_cycle;Max_cycle;Signal;HPM_P1;HPM_P2
2023/12/05 00:00:52;;;;;;;;;;;13.20;99.90;;;;;;5091580;28;19924;-80
2023/12/05 00:03:18;;;;;;;;;;;13.10;99.90;;;;;;5072953;28;19912;-79
2023/12/05 00:05:46;;;;;;;;;;;13.10;99.90;;;;;;5089877;28;19982;-79
2023/12/05 00:08:13;;;;;;;;;;;13.10;99.90;;;;;;5091112;28;19908;-79
2023/12/05 00:10:39;;;;;;;;;;;13.10;99.90;;;;;;5091503;28;19909;-80
2023/12/05 00:13:07;;;;;;;;;;;13.20;99.90;;;;;;5089783;28;19919;-78
2023/12/05 00:15:33;;;;;;;;;;;13.30;99.90;;;;;;5094273;28;20372;-80
2023/12/05 00:17:59;;;;;;;;;;;13.30;99.90;;;;;;5096121;28;20017;-78
2023/12/05 00:20:25;;;;;;;;;;;13.40;99.90;;;;;;5090854;28;19916;-81
2023/12/05 00:22:51;;;;;;;;;;;13.50;99.90;;;;;;5073236;28;19908;-79
2023/12/05 00:25:17;;;;;;;;;;;13.50;99.90;;;;;;5073186;28;20339;-79
2023/12/05 00:27:45;;;;;;;;;;;13.50;99.90;;;;;;5091346;28;19908;-79
2023/12/05 00:30:11;;;;;;;;;;;13.50;99.90;;;;;;5072845;28;19982;-80
2023/12/05 00:32:37;;;;;;;;;;;13.50;99.90;;;;;;5100758;28;19998;-81
2023/12/05 00:35:03;;;;;;;;;;;13.50;99.90;;;;;;5115576;28;19911;-79
2023/12/05 00:37:29;;;;;;;;;;;13.60;99.90;;;;;;5123923;27;20275;-79
2023/12/05 00:39:54;;;;;;;;;;;13.60;99.90;;;;;;5095547;28;19961;-79
2023/12/05 00:42:23;;;;;;;;;;;13.60;99.90;;;;;;5095093;28;19908;-80
2023/12/05 00:44:52;;;;;;;;;;;13.60;99.90;;;;;;5095198;28;20010;-79
2023/12/05 00:47:18;;;;;;;;;;;13.60;99.90;;;;;;5076046;28;20328;-78
2023/12/05 00:49:44;;;;;;;;;;;13.60;99.90;;;;;;5095089;28;19962;-79
2023/12/05 00:52:11;;;;;;;;;;;13.60;99.90;;;;;;5076511;28;20318;-80
2023/12/05 00:54:37;;;;;;;;;;;13.60;99.90;;;;;;5094691;28;19962;-80
2023/12/05 00:57:02;;;;;;;;;;;13.70;99.90;;;;;;5094984;28;20044;-79
2023/12/05 00:59:28;;;;;;;;;;;13.60;99.90;;;;;;5094493;28;20375;-77
2023/12/05 01:01:55;;;;;;;;;;;13.70;99.90;;;;;;5095574;28;19908;-79
2023/12/05 01:04:21;;;;;;;;;;;13.70;99.90;;;;;;5114873;28;19908;-79
2023/12/05 01:06:47;;;;;;;;;;;13.70;99.90;;;;;;5130581;27;19907;-79
2023/12/05 01:09:13;;;;;;;;;;;13.70;99.90;;;;;;5114548;28;19942;-79
2023/12/05 01:11:39;;;;;;;;;;;13.70;99.90;;;;;;5100476;28;19915;-80
2023/12/05 01:14:05;;;;;;;;;;;13.70;99.90;;;;;;5094513;28;19909;-79
2023/12/05 01:16:31;;;;;;;;;;;13.60;99.90;;;;;;5094227;28;19908;-79
2023/12/05 01:18:57;;;;;;;;;;;13.50;99.90;;;;;;5094385;28;19908;-79
2023/12/05 01:21:23;;;;;;;;;;;13.40;99.90;;;;;;5094360;28;19908;-80
2023/12/05 01:23:48;;;;;;;;;;;13.40;99.90;;;;;;5094520;28;20371;-79
2023/12/05 01:26:15;;;;;;;;;;;13.40;99.90;;;;;;5094444;28;19920;-80
2023/12/05 01:28:42;;;;;;;;;;;13.40;99.90;;;;;;5094326;28;20301;-79
2023/12/05 01:31:08;;;;;;;;;;;13.30;99.90;;;;;;5094224;28;19912;-80
2023/12/05 01:33:34;;;;;;;;;;;13.30;99.90;;;;;;5090511;28;19915;-80
2023/12/05 01:36:00;;;;;;;;;;;13.20;99.90;;;;;;5114683;28;20003;-80
2023/12/05 01:38:26;;;;;;;;;;;13.30;99.90;;;;;;5114646;28;19914;-80
2023/12/05 01:40:52;;;;;;;;;;;13.20;99.90;;;;;;5114695;28;20328;-80
2023/12/05 01:43:17;;;;;;;;;;;13.20;99.90;;;;;;5129125;27;19908;-79
2023/12/05 01:45:43;;;;;;;;;;;13.20;99.90;;;;;;5114252;28;19951;-79
2023/12/05 01:48:09;;;;;;;;;;;13.10;99.90;;;;;;5114232;28;19908;-79
2023/12/05 01:50:35;;;;;;;;;;;13.20;99.90;;;;;;5108632;28;19975;-79
2023/12/05 01:53:03;;;;;;;;;;;13.20;99.90;;;;;;5093815;28;19914;-79
2023/12/05 01:55:30;;;;;;;;;;;13.30;99.90;;;;;;5075555;28;19916;-79
2023/12/05 01:57:58;;;;;;;;;;;13.30;99.90;;;;;;5093990;28;19908;-79
2023/12/05 02:00:24;;;;;;;;;;;13.40;99.90;;;;;;5092006;28;20306;-79
2023/12/05 02:02:49;;;;;;;;;;;13.40;99.90;;;;;;5074860;28;19908;-79
2023/12/05 02:05:15;;;;;;;;;;;13.40;99.90;;;;;;5093689;28;19957;-79
2023/12/05 02:07:42;;;;;;;;;;;13.40;99.90;;;;;;5093232;28;20455;-79
2023/12/05 02:10:09;;;;;;;;;;;13.40;99.90;;;;;;5093516;28;19916;-81
2023/12/05 02:12:37;;;;;;;;;;;13.40;99.90;;;;;;5093439;28;19915;-79
2023/12/05 02:15:03;;;;;;;;;;;13.40;99.90;;;;;;5074955;28;19909;-78
2023/12/05 02:17:38;;;;;;;;;;;13.40;99.90;;;;;;5093103;28;19923;-79
2023/12/05 02:20:07;;;;;;;;;;;13.50;99.90;;;;;;5092939;28;20359;-79
2023/12/05 02:22:51;;;;;;;;;;;13.40;99.90;;;;;;5074912;28;19988;-79
2023/12/05 02:25:35;;;;;;;;;;;13.50;99.90;;;;;;5093106;28;19946;-80
2023/12/05 02:28:02;;;;;;;;;;;13.50;99.90;;;;;;5093218;28;19954;-81
2023/12/05 02:30:34;;;;;;;;;;;13.50;99.90;;;;;;5092985;28;19916;-79
2023/12/05 02:32:59;;;;;;;;;;;13.50;99.90;;;;;;5103300;28;20371;-79
2023/12/05 02:35:25;;;;;;;;;;;13.50;99.90;;;;;;5113524;28;19915;-79
2023/12/05 02:37:57;;;;;;;;;;;13.50;99.90;;;;;;5113133;28;19914;-79
2023/12/05 02:40:26;;;;;;;;;;;13.40;99.90;;;;;;5112996;28;20312;-80
2023/12/05 02:42:52;;;;;;;;;;;13.40;99.90;;;;;;5113650;28;19931;-79
2023/12/05 02:45:19;;;;;;;;;;;13.40;99.90;;;;;;5112828;28;20012;-80
2023/12/05 02:47:45;;;;;;;;;;;13.30;99.90;;;;;;5113183;28;19970;-79
2023/12/05 02:50:11;;;;;;;;;;;13.40;99.90;;;;;;5110980;28;20400;-79
2023/12/05 02:52:38;;;;;;;;;;;13.40;99.90;;;;;;5074224;28;19916;-80
2023/12/05 02:55:04;;;;;;;;;;;13.40;99.90;;;;;;5090152;28;19908;-79
2023/12/05 02:57:29;;;;;;;;;;;13.40;99.90;;;;;;5092593;28;20331;-74
2023/12/05 02:59:55;;;;;;;;;;;13.40;99.90;;;;;;5076890;28;19924;-80
2023/12/05 03:02:21;;;;;;;;;;;13.40;99.90;;;;;;5076831;28;19909;-79
2023/12/05 03:04:47;;;;;;;;;;;13.50;99.90;;;;;;5092403;28;19908;-80
2023/12/05 03:07:13;;;;;;;;;;;13.50;99.90;;;;;;5073896;28;19991;-80
2023/12/05 03:09:39;;;;;;;;;;;13.50;99.90;;;;;;5076121;28;20288;-80
2023/12/05 03:12:08;;;;;;;;;;;13.50;99.90;;;;;;5092593;28;20376;-80
2023/12/05 03:14:34;;;;;;;;;;;13.50;99.90;;;;;;5092907;28;19956;-80
2023/12/05 03:17:00;;;;;;;;;;;13.50;99.90;;;;;;5092512;28;19907;-80
2023/12/05 03:19:26;;;;;;;;;;;13.50;99.90;;;;;;5092418;28;20374;-80
2023/12/05 03:21:54;;;;;;;;;;;13.50;99.90;;;;;;5091991;28;19908;-80
2023/12/05 03:24:20;;;;;;;;;;;13.60;99.90;;;;;;5091930;28;20395;-80
2023/12/05 03:26:46;;;;;;;;;;;13.50;99.90;;;;;;5091635;28;19991;-79
2023/12/05 03:29:13;;;;;;;;;;;13.60;99.90;;;;;;5073600;28;20018;-82
2023/12/05 03:31:39;;;;;;;;;;;13.60;99.90;;;;;;5092056;28;20315;-80
2023/12/05 03:34:06;;;;;;;;;;;13.70;99.90;;;;;;5091960;28;19908;-81
2023/12/05 03:36:32;;;;;;;;;;;13.70;99.90;;;;;;5091682;28;20356;-79
2023/12/05 03:38:58;;;;;;;;;;;13.70;99.90;;;;;;5091557;28;19915;-79
2023/12/05 03:41:25;;;;;;;;;;;13.60;99.90;;;;;;5091769;28;19912;-80
2023/12/05 03:43:50;;;;;;;;;;;13.70;99.90;;;;;;5091918;28;19908;-80
2023/12/05 03:46:17;;;;;;;;;;;13.60;99.90;;;;;;5091551;28;19976;-81
2023/12/05 03:48:43;;;;;;;;;;;13.60;99.90;;;;;;5091648;28;19965;-80
2023/12/05 03:51:09;;;;;;;;;;;13.60;99.90;;;;;;5081469;28;19916;-80
2023/12/05 03:53:35;;;;;;;;;;;13.50;99.90;;;;;;5071470;28;19908;-80
2023/12/05 03:56:00;;;;;;;;;;;13.40;99.90;;;;;;5071608;28;20328;-80
2023/12/05 03:58:26;;;;;;;;;;;13.40;99.90;;;;;;5073211;28;19915;-78
2023/12/05 04:00:52;;;;;;;;;;;13.40;99.90;;;;;;5092221;28;19908;-79
2023/12/05 04:03:19;;;;;;;;;;;13.30;99.90;;;;;;5104836;28;19998;-80
2023/12/05 04:05:44;;;;;;;;;;;13.30;99.90;;;;;;5112545;28;20004;-80
2023/12/05 04:08:10;;;;;;;;;;;13.30;99.90;;;;;;5112398;28;19947;-80
2023/12/05 04:10:36;;;;;;;;;;;13.40;99.90;;;;;;5112435;28;19916;-80
2023/12/05 04:13:05;;;;;;;;;;;13.40;99.90;;;;;;5112448;28;19960;-80
2023/12/05 04:15:31;;;;;;;;;;;13.40;99.90;;;;;;5112147;28;20438;-81
2023/12/05 04:17:56;;;;;;;;;;;13.30;99.90;;;;;;5113087;28;19958;-80
2023/12/05 04:20:25;;;;;;;;;;;13.40;99.90;;;;;;5124150;28;20019;-80
2023/12/05 04:22:52;;;;;;;;;;;13.20;99.90;;;;;;5091960;28;19908;-80
2023/12/05 04:25:18;;;;;;;;;;;13.30;99.90;;;;;;5092430;28;19930;-80
2023/12/05 04:27:43;;;;;;;;;;;13.40;99.90;;;;;;5093119;28;19962;-81
2023/12/05 04:30:10;;;;;;;;;;;13.30;99.90;;;;;;5092614;28;19920;-77
2023/12/05 04:32:39;;;;;;;;;;;13.40;99.90;;;;;;5101073;28;19908;-79
2023/12/05 04:35:05;;;;;;;;;;;13.40;99.90;;;;;;5097965;28;19912;-75
2023/12/05 04:37:31;;;;;;;;;;;13.40;99.90;;;;;;5074641;28;19908;-78
2023/12/05 04:39:57;;;;;;;;;;;13.40;99.90;;;;;;5093669;28;20447;-79
2023/12/05 04:42:23;;;;;;;;;;;13.40;99.90;;;;;;5092772;28;20392;-78
2023/12/05 04:44:49;;;;;;;;;;;13.30;99.90;;;;;;5093130;28;19957;-75
2023/12/05 04:47:15;;;;;;;;;;;13.40;99.90;;;;;;5092829;28;19995;-78
2023/12/05 04:49:41;;;;;;;;;;;13.40;99.90;;;;;;5092432;28;20019;-78
2023/12/05 04:52:07;;;;;;;;;;;13.40;99.90;;;;;;5091918;28;20470;-76
2023/12/05 04:54:33;;;;;;;;;;;13.40;99.90;;;;;;5092190;28;19912;-79
2023/12/05 04:56:59;;;;;;;;;;;13.50;99.90;;;;;;5092204;28;19934;-78
2023/12/05 04:59:25;;;;;;;;;;;13.40;99.90;;;;;;5091369;28;19965;-77
2023/12/05 05:01:51;;;;;;;;;;;13.40;99.90;;;;;;5091237;28;19982;-78
2023/12/05 05:04:17;;;;;;;;;;;13.40;99.90;;;;;;5091702;28;20024;-84
2023/12/05 05:06:43;;;;;;;;;;;13.40;99.90;;;;;;5091124;28;20087;-77
2023/12/05 05:09:09;;;;;;;;;;;13.30;99.90;;;;;;5092786;28;20019;-80
2023/12/05 05:11:35;;;;;;;;;;;13.30;99.90;;;;;;5092222;28;20021;-79
2023/12/05 05:14:01;;;;;;;;;;;13.20;99.90;;;;;;5092224;28;19908;-80
2023/12/05 05:16:27;;;;;;;;;;;13.20;99.90;;;;;;5092710;28;19958;-79
2023/12/05 05:18:54;;;;;;;;;;;13.20;99.90;;;;;;5095003;28;20005;-80
2023/12/05 05:21:20;;;;;;;;;;;13.20;99.90;;;;;;5096656;28;19916;-80
2023/12/05 05:23:49;;;;;;;;;;;13.20;99.90;;;;;;5097340;28;19912;-80
2023/12/05 05:26:15;;;;;;;;;;;13.20;99.90;;;;;;5094242;28;19924;-82
2023/12/05 05:28:41;;;;;;;;;;;13.30;99.90;;;;;;5095123;28;19957;-80
2023/12/05 05:31:08;;;;;;;;;;;13.30;99.90;;;;;;5096384;28;19911;-79
2023/12/05 05:33:34;;;;;;;;;;;13.30;99.90;;;;;;5093319;28;19912;-80
2023/12/05 05:35:59;;;;;;;;;;;13.40;99.90;;;;;;5095745;28;19963;-83
2023/12/05 05:38:28;;;;;;;;;;;13.50;99.90;;;;;;5095613;28;19981;-80
2023/12/05 05:41:04;;;;;;;;;;;13.50;99.90;;;;;;5095688;28;20388;-80
2023/12/05 05:43:31;;;;;;;;;;;13.50;99.90;;;;;;5096332;28;20007;-80
2023/12/05 05:45:56;;;;;;;;;;;13.40;99.90;;;;;;5077496;28;20385;-80
2023/12/05 05:48:22;;;;;;;;;;;13.50;99.90;;;;;;5077448;28;19955;-80
2023/12/05 05:50:48;;;;;;;;;;;13.50;99.90;;;;;;5077418;28;19912;-78
2023/12/05 05:53:14;;;;;;;;;;;13.60;99.90;;;;;;5095464;28;19908;-74
2023/12/05 05:55:41;;;;;;;;;;;13.60;99.90;;;;;;5094925;28;19919;-75
2023/12/05 05:58:10;;;;;;;;;;;13.70;99.90;;;;;;5094785;28;19912;-72
2023/12/05 06:00:36;;;;;;;;;;;13.70;99.90;;;;;;5095230;28;19920;-72
2023/12/05 06:03:03;;;;;;;;;;;13.70;99.90;;;;;;5106139;28;19907;-74
2023/12/05 06:05:29;;;;;;;;;;;13.70;99.90;;;;;;5115754;28;19915;-74
2023/12/05 06:07:55;;;;;;;;;;;13.60;99.90;;;;;;5115683;28;19947;-74
2023/12/05 06:10:21;;;;;;;;;;;13.60;99.90;;;;;;5123618;27;19959;-72
2023/12/05 06:12:47;;;;;;;;;;;13.60;99.90;;;;;;5095036;28;20336;-69
2023/12/05 06:15:13;;;;;;;;;;;13.60;99.90;;;;;;5094923;28;19953;-74
2023/12/05 06:17:38;;;;;;;;;;;13.60;99.90;;;;;;5076567;28;19953;-74
2023/12/05 06:20:05;;;;;;;;;;;13.70;99.90;;;;;;5095090;28;19953;-72
2023/12/05 06:22:31;;;;;;;;;;;13.70;99.90;;;;;;5095040;28;19909;-72
2023/12/05 06:24:57;;;;;;;;;;;13.70;99.90;;;;;;5094858;28;20020;-75
2023/12/05 06:27:23;;;;;;;;;;;13.80;99.90;;;;;;5095114;28;19908;-74
2023/12/05 06:29:49;;;;;;;;;;;13.70;99.90;;;;;;5094389;28;20322;-74
2023/12/05 06:32:15;;;;;;;;;;;13.70;99.90;;;;;;5076059;28;20261;-75
2023/12/05 06:34:43;;;;;;;;;;;13.70;99.90;;;;;;5094881;28;19908;-75
2023/12/05 06:37:09;;;;;;;;;;;13.70;99.90;;;;;;5094403;28;19912;-76
2023/12/05 06:39:35;;;;;;;;;;;13.70;99.90;;;;;;5095148;28;20374;-81
2023/12/05 06:42:01;;;;;;;;;;;13.80;99.90;;;;;;5076327;28;19908;-82
2023/12/05 06:44:27;;;;;;;;;;;13.80;99.90;;;;;;5094695;28;19908;-82
2023/12/05 06:46:58;;;;;;;;;;;13.80;99.90;;;;;;5075833;28;19919;-83
2023/12/05 06:49:25;;;;;;;;;;;13.70;99.90;;;;;;5094654;28;19912;-84
2023/12/05 06:51:56;;;;;;;;;;;13.70;99.90;;;;;;5094320;28;19931;-84
2023/12/05 06:54:22;;;;;;;;;;;13.80;99.90;;;;;;5093964;28;19908;-82
2023/12/05 06:56:57;;;;;;;;;;;13.80;99.90;;;;;;5075315;28;19931;-71
2023/12/05 06:59:24;;;;;;;;;;;13.90;99.90;;;;;;5093129;28;19920;-79
2023/12/05 07:01:49;;;;;;;;;;;13.90;99.90;;;;;;5092567;28;19912;-77
2023/12/05 07:04:18;;;;;;;;;;;14.00;99.90;;;;;;5112791;28;19926;-75
2023/12/05 07:06:49;;;;;;;;;;;14.00;99.90;;;;;;5113535;28;19991;-77
2023/12/05 07:09:16;;;;;;;;;;;14.00;99.90;;;;;;5113517;28;19939;-79
2023/12/05 07:11:41;;;;;;;;;;;14.00;99.90;;;;;;5113683;28;19996;-79
2023/12/05 07:14:08;;;;;;;;;;;14.00;99.90;;;;;;5114059;28;19907;-78
2023/12/05 07:16:36;;;;;;;;;;;14.00;99.90;;;;;;5112764;28;19912;-78
2023/12/05 07:19:02;;;;;;;;;;;14.00;99.90;;;;;;5095619;28;19912;-79
2023/12/05 07:21:27;;;;;;;;;;;14.00;99.90;;;;;;5113343;28;19914;-78
2023/12/05 07:23:53;;;;;;;;;;;13.90;99.90;;;;;;5113137;28;19976;-74
2023/12/05 07:26:19;;;;;;;;;;;13.90;99.90;;;;;;5113497;28;19947;-78
2023/12/05 07:28:45;;;;;;;;;;;14.00;99.90;;;;;;5113169;28;20267;-79
2023/12/05 07:31:11;;;;;;;;;;;14.00;99.90;;;;;;5113137;28;20073;-78
2023/12/05 07:33:37;;;;;;;;;;;14.10;99.90;;;;;;5113087;28;19943;-78
2023/12/05 07:36:03;;;;;;;;;;;14.10;99.90;;;;;;5113100;28;20324;-78
2023/12/05 07:38:30;;;;;;;;;;;14.20;99.90;;;;;;5113201;28;19912;-77
2023/12/05 07:40:55;;;;;;;;;;;14.20;99.90;;;;;;5112229;28;19922;-80
2023/12/05 07:43:21;;;;;;;;;;;14.00;99.90;;;;;;5112654;28;19908;-79
2023/12/05 07:45:47;;;;;;;;;;;13.90;99.90;;;;;;5112646;28;19918;-79
2023/12/05 07:48:13;;;;;;;;;;;13.80;99.90;;;;;;5094489;28;19952;-79
2023/12/05 07:50:40;;;;;;;;;;;13.70;99.90;;;;;;5122216;27;20005;-76
2023/12/05 07:53:07;;;;;;;;;;;13.70;99.90;;;;;;5073710;28;19963;-79
2023/12/05 07:55:34;;;;;;;;;;;13.60;99.90;;;;;;5092611;28;19912;-78
2023/12/05 07:57:59;;;;;;;;;;;13.60;99.90;;;;;;5092250;28;19919;-78
2023/12/05 08:00:25;;;;;;;;;;;13.60;99.90;;;;;;5091254;28;19928;-77
2023/12/05 08:02:51;;;;;;;;;;;13.60;99.90;;;;;;5100866;28;19908;-78
2023/12/05 08:05:17;;;;;;;;;;;13.60;99.90;;;;;;5127819;27;19908;-79
2023/12/05 08:07:43;;;;;;;;;;;13.60;99.90;;;;;;5113150;28;19911;-79
2023/12/05 08:10:10;;;;;;;;;;;13.60;99.90;;;;;;5112793;28;20011;-78
2023/12/05 08:12:37;;;;;;;;;;;13.60;99.90;;;;;;5113043;28;19953;-79
2023/12/05 08:15:03;;;;;;;;;;;13.60;99.90;;;;;;5113183;28;19908;-76
2023/12/05 08:17:29;;;;;;;;;;;13.60;99.90;;;;;;5120078;28;19912;-79
2023/12/05 08:20:05;;;;;;;;;;;13.60;99.90;;;;;;5100826;28;19934;-78
2023/12/05 08:22:33;;;;;;;;;;;13.70;99.90;;;;;;5075533;28;20050;-78
2023/12/05 08:24:59;;;;;;;;;;;13.70;99.90;;;;;;5074166;28;19908;-79
2023/12/05 08:27:26;;;;;;;;;;;13.80;99.90;;;;;;5093115;28;20311;-78
2023/12/05 08:29:52;;;;;;;;;;;13.80;99.90;;;;;;5092313;28;19969;-79
2023/12/05 08:32:18;;;;;;;;;;;14.00;99.90;;;;;;5073437;28;20015;-79
2023/12/05 08:34:43;;;;;;;;;;;14.10;99.90;;;;;;5092048;28;19922;-79
2023/12/05 08:37:11;;;;;;;;;;;14.20;99.90;;;;;;5091536;28;20010;-77
2023/12/05 08:39:36;;;;;;;;;;;14.30;99.90;;;;;;5092065;28;20081;-78
2023/12/05 08:42:03;;;;;;;;;;;14.40;99.90;;;;;;5092167;28;20391;-70
2023/12/05 08:44:28;;;;;;;;;;;14.50;99.90;;;;;;5092285;28;20356;-76
2023/12/05 08:46:54;;;;;;;;;;;14.50;99.90;;;;;;5073521;28;19908;-79
2023/12/05 08:49:20;;;;;;;;;;;14.60;99.90;;;;;;5091549;28;19961;-77
2023/12/05 08:51:46;;;;;;;;;;;14.80;99.90;;;;;;5073232;28;19952;-78
2023/12/05 08:54:12;;;;;;;;;;;14.90;99.90;;;;;;5074266;28;19931;-78
2023/12/05 08:56:38;;;;;;;;;;;15.10;99.90;;;;;;5076292;28;20228;-77
2023/12/05 08:59:04;;;;;;;;;;;15.30;99.90;;;;;;5088371;28;19932;-80
2023/12/05 09:01:29;;;;;;;;;;;15.40;99.90;;;;;;5056099;28;19927;-74
2023/12/05 09:03:55;;;;;;;;;;;15.60;99.90;;;;;;5093296;28;20378;-79
2023/12/05 09:06:21;;;;;;;;;;;15.70;99.90;;;;;;5076663;28;19908;-79
2023/12/05 09:08:47;;;;;;;;;;;15.70;99.90;;;;;;5094069;28;19928;-79
2023/12/05 09:11:14;;;;;;;;;;;15.60;99.90;;;;;;5094388;28;20022;-81
2023/12/05 09:13:41;;;;;;;;;;;15.70;99.90;;;;;;5094384;28;19913;-78
2023/12/05 09:16:08;;;;;;;;;;;15.70;99.90;;;;;;5059533;28;19919;-79
2023/12/05 09:18:33;;;;;;;;;;;15.80;99.90;;;;;;5077024;28;19966;-79
2023/12/05 09:20:59;;;;;;;;;;;15.80;99.90;;;;;;5095378;28;19912;-79
2023/12/05 09:23:26;;;;;;;;;;;15.90;99.90;;;;;;5076926;28;19914;-80
2023/12/05 09:25:53;;;;;;;;;;;16.00;99.90;;;;;;5095580;28;19912;-81
2023/12/05 09:28:18;;;;;;;;;;;16.00;99.90;;;;;;5095681;28;20272;-79
2023/12/05 09:30:44;;;;;;;;;;;16.20;99.90;;;;;;5077244;28;19916;-79
2023/12/05 09:33:10;;;;;;;;;;;16.30;99.90;;;;;;5095040;28;19919;-80
2023/12/05 09:35:36;;;;;;;;;;;16.30;99.90;;;;;;5095849;28;19909;-82
2023/12/05 09:38:07;;;;;;;;;;;16.30;99.90;;;;;;5095504;28;19908;-80
2023/12/05 09:40:32;;;;;;;;;;;16.40;99.90;;;;;;5096041;28;19915;-83
2023/12/05 09:42:59;;;;;;;;;;;16.70;99.90;;;;;;5077397;28;20287;-82
2023/12/05 09:45:28;;;;;;;;;;;16.90;99.90;;;;;;5077060;28;19915;-80
2023/12/05 09:47:56;;;;;;;;;;;17.10;99.90;;;;;;5095309;28;20373;-78
2023/12/05 09:50:21;;;;;;;;;;;17.30;99.90;;;;;;5094629;28;19971;-81
2023/12/05 09:52:47;;;;;;;;;;;17.40;99.90;;;;;;5094960;28;20267;-81
2023/12/05 09:55:13;;;;;;;;;;;17.50;99.90;;;;;;5094646;28;19908;-80
2023/12/05 09:57:39;;;;;;;;;;;17.50;99.90;;;;;;5094810;28;19923;-77
2023/12/05 10:00:11;;;;;;;;;;;17.50;99.90;;;;;;5109093;28;19920;-81
2023/12/05 10:02:37;;;;;;;;;;;17.50;99.90;;;;;;5096920;28;19953;-82
2023/12/05 10:05:05;;;;;;;;;;;17.50;99.90;;;;;;5114154;28;19965;-82
2023/12/05 10:07:31;;;;;;;;;;;17.40;99.90;;;;;;5096833;28;20014;-82
2023/12/05 10:09:57;;;;;;;;;;;17.50;99.90;;;;;;5115219;28;20414;-82
2023/12/05 10:12:32;;;;;;;;;;;17.50;99.90;;;;;;5115015;28;19980;-83
2023/12/05 10:15:00;;;;;;;;;;;17.40;99.90;;;;;;5115067;28;19995;-81
2023/12/05 10:17:26;;;;;;;;;;;17.30;99.90;;;;;;5114562;28;20256;-82
2023/12/05 10:19:52;;;;;;;;;;;17.40;99.90;;;;;;5114455;28;19919;-82
2023/12/05 10:22:18;;;;;;;;;;;17.40;99.90;;;;;;5094802;28;19908;-82
2023/12/05 10:24:47;;;;;;;;;;;17.50;99.90;;;;;;5094441;28;19967;-83
2023/12/05 10:27:12;;;;;;;;;;;17.40;99.90;;;;;;5076005;28;19916;-81
2023/12/05 10:29:41;;;;;;;;;;;17.30;99.90;;;;;;5093829;28;19916;-82
2023/12/05 10:32:08;;;;;;;;;;;17.20;99.90;;;;;;5096747;28;19912;-82
2023/12/05 10:34:50;;;;;;;;;;;17.00;99.90;;;;;;5114222;28;19908;-81
2023/12/05 10:37:27;;;;;;;;;;;16.70;99.90;;;;;;5114132;28;19912;-82
2023/12/05 10:39:54;;;;;;;;;;;16.50;99.90;;;;;;5128046;27;20268;-78
2023/12/05 10:42:20;;;;;;;;;;;16.30;99.90;;;;;;5096137;28;19948;-79
2023/12/05 10:44:47;;;;;;;;;;;16.30;99.90;;;;;;5093886;28;19959;-79
2023/12/05 10:47:13;;;;;;;;;;;16.30;99.90;;;;;;5093303;28;19908;-79
2023/12/05 10:49:42;;;;;;;;;;;16.20;99.90;;;;;;5093533;28;19933;-78
2023/12/05 10:52:11;;;;;;;;;;;16.00;99.90;;;;;;5093110;28;19931;-79
2023/12/05 10:54:38;;;;;;;;;;;15.70;99.90;;;;;;5093344;28;20364;-77
2023/12/05 10:57:09;;;;;;;;;;;15.60;99.90;;;;;;5093679;28;19952;-80
2023/12/05 10:59:35;;;;;;;;;;;15.70;99.90;;;;;;5099657;28;19956;-81
2023/12/05 11:02:19;;;;;;;;;;;15.80;99.90;;;;;;5078459;28;20334;-82
2023/12/05 11:04:45;;;;;;;;;;;15.70;99.90;;;;;;5114456;28;19908;-82
2023/12/05 11:07:11;;;;;;;;;;;15.80;99.90;;;;;;5113811;28;19972;-80
2023/12/05 11:09:43;;;;;;;;;;;15.90;99.90;;;;;;5113624;28;19969;-80
2023/12/05 11:12:14;;;;;;;;;;;15.70;99.90;;;;;;5112677;28;20639;-80
2023/12/05 11:14:45;;;;;;;;;;;15.80;99.90;;;;;;5113698;28;19911;-80
2023/12/05 11:17:17;;;;;;;;;;;15.60;99.90;;;;;;5094573;28;19957;-81
2023/12/05 11:19:43;;;;;;;;;;;15.30;99.90;;;;;;5114002;28;19951;-80
2023/12/05 11:22:32;;;;;;;;;;;15.00;99.90;;;;;;5095186;28;19915;-80
2023/12/05 11:25:10;;;;;;;;;;;15.00;99.90;;;;;;5031329;28;19963;-81
2023/12/05 11:27:41;;;;;;;;;;;14.90;99.90;;;;;;5046467;28;19913;-83
2023/12/05 11:30:13;;;;;;;;;;;15.10;99.90;;;;;;5031071;28;19924;-80
2023/12/05 11:32:57;;;;;;;;;;;15.10;99.90;;;;;;5031052;28;19915;-79
2023/12/05 11:35:38;;;;;;;;;;;15.10;99.90;;;;;;5031052;28;19909;-79
2023/12/05 11:38:10;;;;;;;;;;;15.10;99.90;;;;;;5047422;28;19917;-80
2023/12/05 11:40:36;;;;;;;;;;;15.20;99.90;;;;;;5031068;28;19931;-78
2023/12/05 11:43:08;;;;;;;;;;;15.20;99.90;;;;;;5031131;28;20400;-79
2023/12/05 11:45:37;;;;;;;;;;;15.30;99.90;;;;;;5030984;28;19917;-78
2023/12/05 11:48:04;;;;;;;;;;;15.50;99.90;;;;;;5031230;28;19915;-79
2023/12/05 11:50:48;;;;;;;;;;;15.50;99.90;;;;;;5030519;28;19979;-79
2023/12/05 11:53:15;;;;;;;;;;;15.80;99.90;;;;;;5030845;28;19991;-79
2023/12/05 11:55:42;;;;;;;;;;;15.80;99.90;;;;;;5030478;28;20435;-78
2023/12/05 11:58:29;;;;;;;;;;;16.10;99.90;;;;;;5030013;28;19909;-78
2023/12/05 12:01:06;;;;;;;;;;;16.50;99.90;;;;;;5049220;28;19992;-78
2023/12/05 12:03:48;;;;;;;;;;;16.50;99.90;;;;;;5071244;28;19912;-79
2023/12/05 12:06:14;;;;;;;;;;;16.70;99.90;;;;;;5054191;28;19984;-81
2023/12/05 12:08:42;;;;;;;;;;;16.80;99.90;;;;;;5073028;28;19954;-79
2023/12/05 12:11:08;;;;;;;;;;;16.80;99.90;;;;;;5072497;28;19959;-80
2023/12/05 12:13:34;;;;;;;;;;;16.70;99.90;;;;;;5053578;28;19931;-80
2023/12/05 12:16:00;;;;;;;;;;;16.60;99.90;;;;;;5053215;28;19909;-81
2023/12/05 12:18:27;;;;;;;;;;;16.50;99.90;;;;;;5072681;28;19978;-80
2023/12/05 12:20:53;;;;;;;;;;;16.50;99.90;;;;;;5068817;28;20268;-80
2023/12/05 12:23:19;;;;;;;;;;;16.50;99.90;;;;;;5072684;28;20003;-81
2023/12/05 12:26:00;;;;;;;;;;;16.40;99.90;;;;;;5072793;28;19920;-82
2023/12/05 12:28:30;;;;;;;;;;;16.40;99.90;;;;;;5075346;28;19915;-81
2023/12/05 12:30:59;;;;;;;;;;;16.50;99.90;;;;;;5058297;28;19920;-80
2023/12/05 12:33:41;;;;;;;;;;;16.50;99.90;;;;;;5075027;28;19936;-81
2023/12/05 12:36:08;;;;;;;;;;;16.50;99.90;;;;;;5057619;28;19931;-79
2023/12/05 12:38:34;;;;;;;;;;;16.50;99.90;;;;;;5074463;28;19908;-81
2023/12/05 12:41:00;;;;;;;;;;;16.40;99.90;;;;;;5076013;28;19915;-81
2023/12/05 12:43:29;;;;;;;;;;;16.40;99.90;;;;;;5075953;28;19908;-83
2023/12/05 12:45:55;;;;;;;;;;;16.40;99.90;;;;;;5075806;28;20398;-81
2023/12/05 12:48:21;;;;;;;;;;;16.40;99.90;;;;;;5075388;28;19956;-80
2023/12/05 12:50:48;;;;;;;;;;;16.40;99.90;;;;;;5075264;28;20027;-80
2023/12/05 12:53:14;;;;;;;;;;;16.30;99.90;;;;;;5058423;28;20054;-80
2023/12/05 12:55:40;;;;;;;;;;;16.20;99.90;;;;;;5076226;28;19912;-81
2023/12/05 12:58:06;;;;;;;;;;;15.70;99.90;;;;;;5057620;28;20012;-80
2023/12/05 13:00:36;;;;;;;;;;;15.50;99.90;;;;;;5069562;28;20002;-80
2023/12/05 13:03:02;;;;;;;;;;;15.30;99.90;;;;;;5058301;28;19912;-80
2023/12/05 13:05:32;;;;;;;;;;;15.30;99.90;;;;;;5074733;28;19919;-79
2023/12/05 13:08:00;;;;;;;;;;;15.40;99.90;;;;;;5093039;28;20036;-79
2023/12/05 13:10:28;;;;;;;;;;;15.50;99.90;;;;;;5077614;28;20290;-79
2023/12/05 13:12:57;;;;;;;;;;;15.60;99.90;;;;;;5095854;28;20360;-80
2023/12/05 13:15:27;;;;;;;;;;;15.50;99.90;;;;;;5096059;28;19953;-80
2023/12/05 13:18:06;;;;;;;;;;;15.50;99.90;;;;;;5095726;28;20086;-80
2023/12/05 13:20:52;;;;;;;;;;;15.40;99.90;;;;;;5091474;28;20440;-81
2023/12/05 13:23:19;;;;;;;;;;;15.50;99.90;;;;;;5095281;28;19909;-81
2023/12/05 13:25:45;;;;;;;;;;;15.40;99.90;;;;;;5096390;28;19909;-82
2023/12/05 13:28:10;;;;;;;;;;;15.40;99.90;;;;;;5096144;28;19919;-81
2023/12/05 13:30:36;;;;;;;;;;;15.50;99.90;;;;;;5096770;28;19916;-80
2023/12/05 13:33:04;;;;;;;;;;;15.40;99.90;;;;;;5105451;28;19961;-82
2023/12/05 13:35:42;;;;;;;;;;;15.30;99.90;;;;;;5116119;28;20012;-82
2023/12/05 13:38:10;;;;;;;;;;;15.20;99.90;;;;;;5116166;28;19914;-81
2023/12/05 13:40:38;;;;;;;;;;;15.30;99.90;;;;;;5115131;28;20398;-81
2023/12/05 13:43:06;;;;;;;;;;;15.40;99.90;;;;;;5116111;28;19907;-81
2023/12/05 13:45:35;;;;;;;;;;;15.40;99.90;;;;;;5097966;28;19934;-81
2023/12/05 13:48:06;;;;;;;;;;;15.40;99.90;;;;;;5097649;28;19996;-81
2023/12/05 13:50:32;;;;;;;;;;;15.30;99.90;;;;;;5111167;28;19920;-81
2023/12/05 13:52:58;;;;;;;;;;;15.20;99.90;;;;;;5095931;28;20285;-82
2023/12/05 13:55:24;;;;;;;;;;;15.10;99.90;;;;;;5077063;28;19918;-80
2023/12/05 13:57:50;;;;;;;;;;;15.10;99.90;;;;;;5094503;28;19908;-81
2023/12/05 14:00:16;;;;;;;;;;;15.00;99.90;;;;;;5094818;28;20303;-82
2023/12/05 14:02:48;;;;;;;;;;;15.00;99.90;;;;;;5100744;28;19912;-85
2023/12/05 14:05:15;;;;;;;;;;;15.00;99.90;;;;;;5115812;28;19908;-82
2023/12/05 14:07:41;;;;;;;;;;;15.10;99.90;;;;;;5115113;28;20344;-81
2023/12/05 14:10:07;;;;;;;;;;;15.20;99.90;;;;;;5115307;28;19967;-78
2023/12/05 14:12:41;;;;;;;;;;;15.10;99.90;;;;;;5115211;28;19907;-82
2023/12/05 14:15:07;;;;;;;;;;;15.20;99.90;;;;;;5115485;28;19915;-82
2023/12/05 14:17:33;;;;;;;;;;;15.20;99.90;;;;;;5115070;28;19908;-81